sensor_id;sensor_type;location;lat;lon;timestamp;P1;durP1;ratioP1;P2;durP2;ratioP2
75459;SDS011;64039;53.060;9.342;2023-02-18T00:01:25;10.25;;;2.10;;
75459;SDS011;64039;53.060;9.342;2023-02-18T00:03:51;12.77;;;2.10;;
75459;SDS011;64039;53.060;9.342;2023-02-18T00:06:18;9.52;;;1.90;;
75459;SDS011;64039;53.060;9.342;2023-02-18T00:08:45;15.57;;;2.05;;
75459;SDS011;64039;53.060;9.342;2023-02-18T00:11:11;15.20;;;2.40;;
75459;SDS011;64039;53.060;9.342;2023-02-18T00:13:38;12.43;;;1.98;;
75459;SDS011;64039;53.060;9.342;2023-02-18T00:16:04;10.15;;;1.88;;
75459;SDS011;64039;53.060;9.342;2023-02-18T00:18:31;13.15;;;2.03;;
75459;SDS011;64039;53.060;9.342;2023-02-18T00:20:57;9.38;;;1.75;;
75459;SDS011;64039;53.060;9.342;2023-02-18T00:23:22;9.27;;;1.80;;
75459;SDS011;64039;53.060;9.342;2023-02-18T00:25:48;13.27;;;1.70;;
75459;SDS011;64039;53.060;9.342;2023-02-18T00:28:13;14.80;;;1.90;;
75459;SDS011;64039;53.060;9.342;2023-02-18T00:30:39;14.13;;;1.98;;
75459;SDS011;64039;53.060;9.342;2023-02-18T00:33:05;14.52;;;1.83;;
75459;SDS011;64039;53.060;9.342;2023-02-18T00:35:31;11.20;;;2.00;;
75459;SDS011;64039;53.060;9.342;2023-02-18T00:37:57;16.10;;;1.83;;
75459;SDS011;64039;53.060;9.342;2023-02-18T00:40:23;8.85;;;2.22;;
75459;SDS011;64039;53.060;9.342;2023-02-18T00:42:48;11.00;;;1.90;;
75459;SDS011;64039;53.060;9.342;2023-02-18T00:45:14;9.95;;;1.80;;
75459;SDS011;64039;53.060;9.342;2023-02-18T00:47:39;15.73;;;2.72;;
75459;SDS011;64039;53.060;9.342;2023-02-18T00:50:05;14.52;;;1.88;;
75459;SDS011;64039;53.060;9.342;2023-02-18T00:52:31;13.00;;;1.98;;
75459;SDS011;64039;53.060;9.342;2023-02-18T00:54:57;10.20;;;1.70;;
75459;SDS011;64039;53.060;9.342;2023-02-18T00:57:22;11.13;;;1.98;;
75459;SDS011;64039;53.060;9.342;2023-02-18T00:59:48;13.63;;;1.85;;
75459;SDS011;64039;53.060;9.342;2023-02-18T01:02:13;9.50;;;1.70;;
75459;SDS011;64039;53.060;9.342;2023-02-18T01:04:39;10.13;;;1.30;;
75459;SDS011;64039;53.060;9.342;2023-02-18T01:07:04;11.80;;;1.70;;
75459;SDS011;64039;53.060;9.342;2023-02-18T01:09:30;8.75;;;1.50;;
75459;SDS011;64039;53.060;9.342;2023-02-18T01:11:55;10.43;;;1.67;;
75459;SDS011;64039;53.060;9.342;2023-02-18T01:14:21;8.65;;;1.45;;
75459;SDS011;64039;53.060;9.342;2023-02-18T01:16:46;11.18;;;1.70;;
75459;SDS011;64039;53.060;9.342;2023-02-18T01:19:11;10.45;;;2.00;;
75459;SDS011;64039;53.060;9.342;2023-02-18T01:21:37;14.18;;;2.30;;
75459;SDS011;64039;53.060;9.342;2023-02-18T01:24:03;8.57;;;1.70;;
75459;SDS011;64039;53.060;9.342;2023-02-18T01:26:30;16.42;;;2.22;;
75459;SDS011;64039;53.060;9.342;2023-02-18T01:28:55;10.95;;;2.10;;
75459;SDS011;64039;53.060;9.342;2023-02-18T01:31:21;12.65;;;2.35;;
75459;SDS011;64039;53.060;9.342;2023-02-18T01:33:46;11.63;;;2.50;;
75459;SDS011;64039;53.060;9.342;2023-02-18T01:36:12;7.03;;;1.67;;
75459;SDS011;64039;53.060;9.342;2023-02-18T01:38:37;7.68;;;1.98;;
75459;SDS011;64039;53.060;9.342;2023-02-18T01:41:04;8.98;;;1.80;;
75459;SDS011;64039;53.060;9.342;2023-02-18T01:43:29;8.00;;;1.73;;
75459;SDS011;64039;53.060;9.342;2023-02-18T01:45:57;11.35;;;2.13;;
75459;SDS011;64039;53.060;9.342;2023-02-18T01:48:46;9.50;;;1.98;;
75459;SDS011;64039;53.060;9.342;2023-02-18T01:53:59;17.88;;;2.20;;
75459;SDS011;64039;53.060;9.342;2023-02-18T01:56:47;10.40;;;1.70;;
75459;SDS011;64039;53.060;9.342;2023-02-18T01:59:25;12.50;;;2.15;;
75459;SDS011;64039;53.060;9.342;2023-02-18T02:01:55;5.53;;;1.50;;
75459;SDS011;64039;53.060;9.342;2023-02-18T02:04:22;8.73;;;1.88;;
75459;SDS011;64039;53.060;9.342;2023-02-18T02:06:48;12.32;;;2.35;;
75459;SDS011;64039;53.060;9.342;2023-02-18T02:09:15;9.63;;;1.85;;
75459;SDS011;64039;53.060;9.342;2023-02-18T02:17:10;9.55;;;1.60;;
75459;SDS011;64039;53.060;9.342;2023-02-18T02:25:42;8.02;;;1.60;;
75459;SDS011;64039;53.060;9.342;2023-02-18T02:28:17;14.30;;;2.00;;
75459;SDS011;64039;53.060;9.342;2023-02-18T02:36:13;12.07;;;1.67;;
75459;SDS011;64039;53.060;9.342;2023-02-18T02:41:25;14.98;;;2.13;;
75459;SDS011;64039;53.060;9.342;2023-02-18T02:43:55;16.23;;;2.70;;
75459;SDS011;64039;53.060;9.342;2023-02-18T02:46:38;9.10;;;1.85;;
75459;SDS011;64039;53.060;9.342;2023-02-18T02:49:27;9.82;;;1.90;;
75459;SDS011;64039;53.060;9.342;2023-02-18T02:52:16;12.35;;;2.13;;
75459;SDS011;64039;53.060;9.342;2023-02-18T02:54:45;11.15;;;2.35;;
75459;SDS011;64039;53.060;9.342;2023-02-18T02:59:43;10.75;;;1.67;;
75459;SDS011;64039;53.060;9.342;2023-02-18T03:16:27;8.75;;;1.55;;
75459;SDS011;64039;53.060;9.342;2023-02-18T03:19:06;13.10;;;1.70;;
75459;SDS011;64039;53.060;9.342;2023-02-18T03:21:40;8.88;;;2.03;;
75459;SDS011;64039;53.060;9.342;2023-02-18T03:24:13;7.28;;;1.77;;
75459;SDS011;64039;53.060;9.342;2023-02-18T03:26:45;11.02;;;1.80;;
75459;SDS011;64039;53.060;9.342;2023-02-18T03:29:15;4.38;;;1.45;;
75459;SDS011;64039;53.060;9.342;2023-02-18T03:31:43;8.80;;;2.30;;
75459;SDS011;64039;53.060;9.342;2023-02-18T03:34:14;9.20;;;1.83;;
75459;SDS011;64039;53.060;9.342;2023-02-18T03:36:44;10.50;;;1.80;;
75459;SDS011;64039;53.060;9.342;2023-02-18T03:39:10;8.90;;;1.70;;
75459;SDS011;64039;53.060;9.342;2023-02-18T03:41:42;7.78;;;1.58;;
75459;SDS011;64039;53.060;9.342;2023-02-18T03:44:09;9.70;;;1.65;;
75459;SDS011;64039;53.060;9.342;2023-02-18T03:46:36;9.68;;;1.60;;
75459;SDS011;64039;53.060;9.342;2023-02-18T03:49:03;12.70;;;2.00;;
75459;SDS011;64039;53.060;9.342;2023-02-18T03:51:29;9.27;;;1.83;;
75459;SDS011;64039;53.060;9.342;2023-02-18T03:53:54;8.02;;;1.50;;
75459;SDS011;64039;53.060;9.342;2023-02-18T03:56:20;9.50;;;1.50;;
75459;SDS011;64039;53.060;9.342;2023-02-18T03:58:46;12.30;;;1.52;;
75459;SDS011;64039;53.060;9.342;2023-02-18T04:01:11;9.82;;;1.95;;
75459;SDS011;64039;53.060;9.342;2023-02-18T04:03:37;9.00;;;1.40;;
75459;SDS011;64039;53.060;9.342;2023-02-18T04:06:03;9.52;;;1.88;;
75459;SDS011;64039;53.060;9.342;2023-02-18T04:08:29;6.07;;;1.30;;
75459;SDS011;64039;53.060;9.342;2023-02-18T04:10:54;10.48;;;1.30;;
75459;SDS011;64039;53.060;9.342;2023-02-18T04:13:20;13.27;;;1.73;;
75459;SDS011;64039;53.060;9.342;2023-02-18T04:15:47;7.47;;;1.50;;
75459;SDS011;64039;53.060;9.342;2023-02-18T04:18:13;9.13;;;1.48;;
75459;SDS011;64039;53.060;9.342;2023-02-18T04:20:39;10.60;;;1.98;;
75459;SDS011;64039;53.060;9.342;2023-02-18T04:23:04;6.43;;;1.23;;
75459;SDS011;64039;53.060;9.342;2023-02-18T04:25:30;4.57;;;1.50;;
75459;SDS011;64039;53.060;9.342;2023-02-18T04:27:55;6.35;;;1.52;;
75459;SDS011;64039;53.060;9.342;2023-02-18T04:30:21;4.75;;;1.35;;
75459;SDS011;64039;53.060;9.342;2023-02-18T04:32:46;11.05;;;1.70;;
75459;SDS011;64039;53.060;9.342;2023-02-18T04:35:12;13.38;;;1.80;;
75459;SDS011;64039;53.060;9.342;2023-02-18T04:37:38;6.63;;;1.50;;
75459;SDS011;64039;53.060;9.342;2023-02-18T04:40:03;6.60;;;1.35;;
75459;SDS011;64039;53.060;9.342;2023-02-18T04:42:29;6.38;;;1.60;;
75459;SDS011;64039;53.060;9.342;2023-02-18T04:44:55;5.43;;;1.15;;
75459;SDS011;64039;53.060;9.342;2023-02-18T04:47:20;9.85;;;1.52;;
75459;SDS011;64039;53.060;9.342;2023-02-18T04:49:46;7.07;;;1.65;;
75459;SDS011;64039;53.060;9.342;2023-02-18T04:52:11;9.32;;;1.58;;
75459;SDS011;64039;53.060;9.342;2023-02-18T04:54:37;6.70;;;1.60;;
75459;SDS011;64039;53.060;9.342;2023-02-18T04:57:02;8.68;;;2.20;;
75459;SDS011;64039;53.060;9.342;2023-02-18T04:59:28;7.65;;;1.63;;
75459;SDS011;64039;53.060;9.342;2023-02-18T05:01:53;10.68;;;1.90;;
75459;SDS011;64039;53.060;9.342;2023-02-18T05:04:19;6.47;;;1.35;;
75459;SDS011;64039;53.060;9.342;2023-02-18T05:06:44;12.27;;;1.75;;
75459;SDS011;64039;53.060;9.342;2023-02-18T05:09:10;7.60;;;1.70;;
75459;SDS011;64039;53.060;9.342;2023-02-18T05:11:36;11.13;;;2.15;;
75459;SDS011;64039;53.060;9.342;2023-02-18T05:14:01;12.48;;;1.98;;
75459;SDS011;64039;53.060;9.342;2023-02-18T05:16:27;7.03;;;1.63;;
75459;SDS011;64039;53.060;9.342;2023-02-18T05:18:53;12.20;;;1.65;;
75459;SDS011;64039;53.060;9.342;2023-02-18T05:21:18;8.43;;;1.52;;
75459;SDS011;64039;53.060;9.342;2023-02-18T05:23:44;7.45;;;1.38;;
75459;SDS011;64039;53.060;9.342;2023-02-18T05:26:09;9.25;;;1.75;;
75459;SDS011;64039;53.060;9.342;2023-02-18T05:28:35;12.07;;;1.95;;
75459;SDS011;64039;53.060;9.342;2023-02-18T05:31:00;8.40;;;1.60;;
75459;SDS011;64039;53.060;9.342;2023-02-18T05:33:26;11.10;;;1.95;;
75459;SDS011;64039;53.060;9.342;2023-02-18T05:35:51;8.20;;;1.95;;
75459;SDS011;64039;53.060;9.342;2023-02-18T05:38:17;9.07;;;1.65;;
75459;SDS011;64039;53.060;9.342;2023-02-18T05:40:42;11.23;;;1.60;;
75459;SDS011;64039;53.060;9.342;2023-02-18T05:43:08;6.10;;;1.45;;
75459;SDS011;64039;53.060;9.342;2023-02-18T05:45:33;8.32;;;1.85;;
75459;SDS011;64039;53.060;9.342;2023-02-18T05:47:59;10.07;;;1.77;;
75459;SDS011;64039;53.060;9.342;2023-02-18T05:50:24;7.47;;;1.88;;
75459;SDS011;64039;53.060;9.342;2023-02-18T05:52:50;9.15;;;1.85;;
75459;SDS011;64039;53.060;9.342;2023-02-18T05:55:15;10.70;;;1.80;;
75459;SDS011;64039;53.060;9.342;2023-02-18T05:57:41;10.02;;;2.17;;
75459;SDS011;64039;53.060;9.342;2023-02-18T06:00:06;8.82;;;1.55;;
75459;SDS011;64039;53.060;9.342;2023-02-18T06:02:35;10.93;;;2.05;;
75459;SDS011;64039;53.060;9.342;2023-02-18T06:05:02;12.05;;;1.60;;
75459;SDS011;64039;53.060;9.342;2023-02-18T06:07:27;7.45;;;1.92;;
75459;SDS011;64039;53.060;9.342;2023-02-18T06:09:53;7.25;;;1.60;;
75459;SDS011;64039;53.060;9.342;2023-02-18T06:12:18;6.43;;;1.38;;
75459;SDS011;64039;53.060;9.342;2023-02-18T06:14:44;8.05;;;1.67;;
75459;SDS011;64039;53.060;9.342;2023-02-18T06:17:11;9.75;;;1.90;;
75459;SDS011;64039;53.060;9.342;2023-02-18T06:19:37;10.85;;;1.92;;
75459;SDS011;64039;53.060;9.342;2023-02-18T06:22:03;9.50;;;1.95;;
75459;SDS011;64039;53.060;9.342;2023-02-18T06:24:29;8.15;;;1.75;;
75459;SDS011;64039;53.060;9.342;2023-02-18T06:26:55;5.80;;;1.70;;
75459;SDS011;64039;53.060;9.342;2023-02-18T06:29:20;7.72;;;1.85;;
75459;SDS011;64039;53.060;9.342;2023-02-18T06:31:46;9.95;;;2.08;;
75459;SDS011;64039;53.060;9.342;2023-02-18T06:34:11;8.65;;;1.70;;
75459;SDS011;64039;53.060;9.342;2023-02-18T06:36:37;7.22;;;1.83;;
75459;SDS011;64039;53.060;9.342;2023-02-18T06:39:03;10.73;;;2.10;;
75459;SDS011;64039;53.060;9.342;2023-02-18T06:41:29;7.78;;;1.90;;
75459;SDS011;64039;53.060;9.342;2023-02-18T06:43:55;6.28;;;1.90;;
75459;SDS011;64039;53.060;9.342;2023-02-18T06:46:20;10.63;;;2.28;;
75459;SDS011;64039;53.060;9.342;2023-02-18T06:48:45;7.00;;;1.65;;
75459;SDS011;64039;53.060;9.342;2023-02-18T06:51:11;8.75;;;2.10;;
75459;SDS011;64039;53.060;9.342;2023-02-18T06:53:36;6.32;;;1.83;;
75459;SDS011;64039;53.060;9.342;2023-02-18T06:56:02;7.15;;;1.60;;
75459;SDS011;64039;53.060;9.342;2023-02-18T06:58:27;8.13;;;2.60;;
75459;SDS011;64039;53.060;9.342;2023-02-18T07:00:54;4.90;;;1.90;;
75459;SDS011;64039;53.060;9.342;2023-02-18T07:03:20;7.78;;;2.00;;
75459;SDS011;64039;53.060;9.342;2023-02-18T07:05:45;7.97;;;2.10;;
75459;SDS011;64039;53.060;9.342;2023-02-18T07:08:10;7.05;;;2.20;;
75459;SDS011;64039;53.060;9.342;2023-02-18T07:10:36;6.13;;;2.05;;
75459;SDS011;64039;53.060;9.342;2023-02-18T07:13:01;5.28;;;2.10;;
75459;SDS011;64039;53.060;9.342;2023-02-18T07:15:27;5.40;;;2.30;;
75459;SDS011;64039;53.060;9.342;2023-02-18T07:17:53;8.48;;;2.22;;
75459;SDS011;64039;53.060;9.342;2023-02-18T07:20:19;9.88;;;3.25;;
75459;SDS011;64039;53.060;9.342;2023-02-18T07:22:45;11.15;;;5.70;;
75459;SDS011;64039;53.060;9.342;2023-02-18T07:25:11;7.00;;;2.70;;
75459;SDS011;64039;53.060;9.342;2023-02-18T07:27:37;9.27;;;2.05;;
75459;SDS011;64039;53.060;9.342;2023-02-18T07:30:03;7.80;;;2.15;;
75459;SDS011;64039;53.060;9.342;2023-02-18T07:32:28;5.32;;;2.40;;
75459;SDS011;64039;53.060;9.342;2023-02-18T07:34:54;8.73;;;2.75;;
75459;SDS011;64039;53.060;9.342;2023-02-18T07:37:19;8.52;;;2.75;;
75459;SDS011;64039;53.060;9.342;2023-02-18T07:39:45;6.07;;;2.25;;
75459;SDS011;64039;53.060;9.342;2023-02-18T07:42:11;8.05;;;2.90;;
75459;SDS011;64039;53.060;9.342;2023-02-18T07:44:38;5.82;;;2.65;;
75459;SDS011;64039;53.060;9.342;2023-02-18T07:47:04;5.90;;;2.80;;
75459;SDS011;64039;53.060;9.342;2023-02-18T07:49:33;5.00;;;2.50;;
75459;SDS011;64039;53.060;9.342;2023-02-18T07:51:59;6.32;;;2.40;;
75459;SDS011;64039;53.060;9.342;2023-02-18T07:54:24;4.13;;;2.28;;
75459;SDS011;64039;53.060;9.342;2023-02-18T07:56:50;3.28;;;2.00;;
75459;SDS011;64039;53.060;9.342;2023-02-18T07:59:16;5.25;;;2.22;;
75459;SDS011;64039;53.060;9.342;2023-02-18T08:01:42;3.75;;;2.20;;
75459;SDS011;64039;53.060;9.342;2023-02-18T08:04:09;3.67;;;2.10;;
75459;SDS011;64039;53.060;9.342;2023-02-18T08:06:38;5.15;;;2.47;;
75459;SDS011;64039;53.060;9.342;2023-02-18T08:09:05;4.47;;;2.40;;
75459;SDS011;64039;53.060;9.342;2023-02-18T08:11:31;3.58;;;2.35;;
75459;SDS011;64039;53.060;9.342;2023-02-18T08:13:57;3.50;;;2.45;;
75459;SDS011;64039;53.060;9.342;2023-02-18T08:16:23;6.30;;;3.90;;
75459;SDS011;64039;53.060;9.342;2023-02-18T08:18:49;6.53;;;3.45;;
75459;SDS011;64039;53.060;9.342;2023-02-18T08:21:16;9.52;;;6.00;;
75459;SDS011;64039;53.060;9.342;2023-02-18T08:23:44;4.70;;;3.50;;
75459;SDS011;64039;53.060;9.342;2023-02-18T08:26:10;7.03;;;4.03;;
75459;SDS011;64039;53.060;9.342;2023-02-18T08:28:35;5.72;;;3.55;;
75459;SDS011;64039;53.060;9.342;2023-02-18T08:31:01;4.88;;;3.40;;
75459;SDS011;64039;53.060;9.342;2023-02-18T08:33:27;5.60;;;3.47;;
75459;SDS011;64039;53.060;9.342;2023-02-18T08:35:53;4.68;;;3.10;;
75459;SDS011;64039;53.060;9.342;2023-02-18T08:38:19;4.75;;;3.28;;
75459;SDS011;64039;53.060;9.342;2023-02-18T08:40:45;5.65;;;3.05;;
75459;SDS011;64039;53.060;9.342;2023-02-18T08:43:11;4.50;;;3.03;;
75459;SDS011;64039;53.060;9.342;2023-02-18T08:45:38;5.00;;;3.22;;
75459;SDS011;64039;53.060;9.342;2023-02-18T08:48:04;12.48;;;6.53;;
75459;SDS011;64039;53.060;9.342;2023-02-18T08:50:32;6.93;;;4.30;;
75459;SDS011;64039;53.060;9.342;2023-02-18T08:52:58;6.53;;;4.40;;
75459;SDS011;64039;53.060;9.342;2023-02-18T08:55:31;7.90;;;4.40;;
75459;SDS011;64039;53.060;9.342;2023-02-18T08:57:57;9.20;;;5.88;;
75459;SDS011;64039;53.060;9.342;2023-02-18T09:00:22;7.90;;;4.88;;
75459;SDS011;64039;53.060;9.342;2023-02-18T09:02:48;8.40;;;5.25;;
75459;SDS011;64039;53.060;9.342;2023-02-18T09:05:14;9.18;;;5.28;;
75459;SDS011;64039;53.060;9.342;2023-02-18T09:07:39;9.63;;;5.95;;
75459;SDS011;64039;53.060;9.342;2023-02-18T09:10:05;10.57;;;5.93;;
75459;SDS011;64039;53.060;9.342;2023-02-18T09:12:31;10.55;;;6.10;;
75459;SDS011;64039;53.060;9.342;2023-02-18T09:14:57;9.65;;;5.93;;
75459;SDS011;64039;53.060;9.342;2023-02-18T09:17:23;9.98;;;6.05;;
75459;SDS011;64039;53.060;9.342;2023-02-18T09:19:48;10.88;;;6.63;;
75459;SDS011;64039;53.060;9.342;2023-02-18T09:22:14;11.85;;;6.50;;
75459;SDS011;64039;53.060;9.342;2023-02-18T09:24:40;10.52;;;6.22;;
75459;SDS011;64039;53.060;9.342;2023-02-18T09:27:06;10.25;;;5.60;;
75459;SDS011;64039;53.060;9.342;2023-02-18T09:29:32;10.00;;;5.45;;
75459;SDS011;64039;53.060;9.342;2023-02-18T09:32:01;9.05;;;5.57;;
75459;SDS011;64039;53.060;9.342;2023-02-18T09:34:27;7.93;;;4.57;;
75459;SDS011;64039;53.060;9.342;2023-02-18T09:36:53;7.25;;;4.65;;
75459;SDS011;64039;53.060;9.342;2023-02-18T09:39:18;5.40;;;3.95;;
75459;SDS011;64039;53.060;9.342;2023-02-18T09:41:49;5.95;;;4.05;;
75459;SDS011;64039;53.060;9.342;2023-02-18T09:44:26;7.63;;;4.03;;
75459;SDS011;64039;53.060;9.342;2023-02-18T09:46:59;5.00;;;3.22;;
75459;SDS011;64039;53.060;9.342;2023-02-18T09:49:30;4.32;;;3.05;;
75459;SDS011;64039;53.060;9.342;2023-02-18T09:52:04;4.20;;;2.55;;
75459;SDS011;64039;53.060;9.342;2023-02-18T09:54:36;4.22;;;3.10;;
75459;SDS011;64039;53.060;9.342;2023-02-18T09:57:02;4.43;;;3.20;;
75459;SDS011;64039;53.060;9.342;2023-02-18T09:59:29;4.22;;;2.90;;
75459;SDS011;64039;53.060;9.342;2023-02-18T10:01:55;3.00;;;2.30;;
75459;SDS011;64039;53.060;9.342;2023-02-18T10:04:24;3.28;;;2.40;;
75459;SDS011;64039;53.060;9.342;2023-02-18T10:06:54;3.10;;;2.50;;
75459;SDS011;64039;53.060;9.342;2023-02-18T10:09:23;3.28;;;2.17;;
75459;SDS011;64039;53.060;9.342;2023-02-18T10:11:56;3.72;;;2.50;;
75459;SDS011;64039;53.060;9.342;2023-02-18T10:14:26;2.53;;;2.00;;
75459;SDS011;64039;53.060;9.342;2023-02-18T10:16:54;1.95;;;1.73;;
75459;SDS011;64039;53.060;9.342;2023-02-18T10:19:28;2.38;;;2.00;;
75459;SDS011;64039;53.060;9.342;2023-02-18T10:21:57;3.35;;;2.20;;
75459;SDS011;64039;53.060;9.342;2023-02-18T10:24:34;4.65;;;2.75;;
75459;SDS011;64039;53.060;9.342;2023-02-18T10:27:24;2.45;;;1.80;;
75459;SDS011;64039;53.060;9.342;2023-02-18T10:29:51;2.42;;;1.90;;
75459;SDS011;64039;53.060;9.342;2023-02-18T10:35:34;2.15;;;1.73;;
75459;SDS011;64039;53.060;9.342;2023-02-18T10:38:23;2.58;;;2.20;;
75459;SDS011;64039;53.060;9.342;2023-02-18T10:46:30;3.13;;;2.28;;
75459;SDS011;64039;53.060;9.342;2023-02-18T10:49:03;3.95;;;2.75;;
75459;SDS011;64039;53.060;9.342;2023-02-18T10:51:47;4.20;;;2.90;;
75459;SDS011;64039;53.060;9.342;2023-02-18T10:54:21;3.90;;;3.00;;
75459;SDS011;64039;53.060;9.342;2023-02-18T10:56:49;5.68;;;3.22;;
75459;SDS011;64039;53.060;9.342;2023-02-18T10:59:20;3.25;;;2.70;;
75459;SDS011;64039;53.060;9.342;2023-02-18T11:02:13;4.30;;;3.20;;
75459;SDS011;64039;53.060;9.342;2023-02-18T11:04:43;3.92;;;2.95;;
75459;SDS011;64039;53.060;9.342;2023-02-18T11:07:23;4.32;;;2.95;;
75459;SDS011;64039;53.060;9.342;2023-02-18T11:09:53;5.03;;;2.97;;
75459;SDS011;64039;53.060;9.342;2023-02-18T11:12:26;3.35;;;2.47;;
75459;SDS011;64039;53.060;9.342;2023-02-18T11:15:14;4.40;;;3.17;;
75459;SDS011;64039;53.060;9.342;2023-02-18T11:17:45;3.67;;;2.80;;
75459;SDS011;64039;53.060;9.342;2023-02-18T11:20:36;4.90;;;3.25;;
75459;SDS011;64039;53.060;9.342;2023-02-18T11:25:35;3.88;;;2.83;;
75459;SDS011;64039;53.060;9.342;2023-02-18T11:30:42;3.47;;;2.42;;
75459;SDS011;64039;53.060;9.342;2023-02-18T11:35:49;4.97;;;3.72;;
75459;SDS011;64039;53.060;9.342;2023-02-18T11:41:08;3.72;;;2.65;;
75459;SDS011;64039;53.060;9.342;2023-02-18T11:43:40;3.67;;;2.47;;
75459;SDS011;64039;53.060;9.342;2023-02-18T11:46:12;2.92;;;2.30;;
75459;SDS011;64039;53.060;9.342;2023-02-18T11:48:40;3.35;;;2.30;;
75459;SDS011;64039;53.060;9.342;2023-02-18T11:51:10;3.10;;;2.45;;
75459;SDS011;64039;53.060;9.342;2023-02-18T11:53:49;3.00;;;2.40;;
75459;SDS011;64039;53.060;9.342;2023-02-18T11:56:25;3.53;;;2.30;;
75459;SDS011;64039;53.060;9.342;2023-02-18T11:58:53;2.97;;;2.40;;
75459;SDS011;64039;53.060;9.342;2023-02-18T12:01:30;2.97;;;2.30;;
75459;SDS011;64039;53.060;9.342;2023-02-18T12:06:52;4.13;;;2.20;;
75459;SDS011;64039;53.060;9.342;2023-02-18T12:09:36;2.50;;;2.22;;
75459;SDS011;64039;53.060;9.342;2023-02-18T12:14:50;2.75;;;2.03;;
75459;SDS011;64039;53.060;9.342;2023-02-18T12:17:39;2.47;;;2.17;;
75459;SDS011;64039;53.060;9.342;2023-02-18T12:23:13;2.50;;;2.30;;
75459;SDS011;64039;53.060;9.342;2023-02-18T12:28:44;2.53;;;2.22;;
75459;SDS011;64039;53.060;9.342;2023-02-18T12:42:49;3.80;;;2.30;;
75459;SDS011;64039;53.060;9.342;2023-02-18T12:53:56;3.17;;;2.50;;
75459;SDS011;64039;53.060;9.342;2023-02-18T12:57:02;6.38;;;3.08;;
75459;SDS011;64039;53.060;9.342;2023-02-18T13:08:55;8.43;;;3.25;;
75459;SDS011;64039;53.060;9.342;2023-02-18T13:11:39;3.47;;;3.08;;
75459;SDS011;64039;53.060;9.342;2023-02-18T13:14:21;7.25;;;3.65;;
75459;SDS011;64039;53.060;9.342;2023-02-18T13:16:51;5.57;;;3.08;;
75459;SDS011;64039;53.060;9.342;2023-02-18T13:19:27;4.20;;;3.30;;
75459;SDS011;64039;53.060;9.342;2023-02-18T13:21:59;6.82;;;4.18;;
75459;SDS011;64039;53.060;9.342;2023-02-18T13:24:35;5.57;;;3.15;;
75459;SDS011;64039;53.060;9.342;2023-02-18T13:27:26;6.07;;;3.67;;
75459;SDS011;64039;53.060;9.342;2023-02-18T13:29:59;5.75;;;3.45;;
75459;SDS011;64039;53.060;9.342;2023-02-18T13:32:36;7.18;;;4.07;;
75459;SDS011;64039;53.060;9.342;2023-02-18T13:35:26;8.18;;;5.03;;
75459;SDS011;64039;53.060;9.342;2023-02-18T13:40:57;11.52;;;3.88;;
75459;SDS011;64039;53.060;9.342;2023-02-18T13:46:02;8.45;;;3.72;;
75459;SDS011;64039;53.060;9.342;2023-02-18T13:48:37;9.70;;;3.70;;
75459;SDS011;64039;53.060;9.342;2023-02-18T13:51:08;7.72;;;3.40;;
75459;SDS011;64039;53.060;9.342;2023-02-18T13:53:35;9.32;;;3.70;;
75459;SDS011;64039;53.060;9.342;2023-02-18T13:56:19;8.25;;;3.78;;
75459;SDS011;64039;53.060;9.342;2023-02-18T13:58:53;10.20;;;3.72;;
75459;SDS011;64039;53.060;9.342;2023-02-18T14:04:01;11.40;;;3.72;;
75459;SDS011;64039;53.060;9.342;2023-02-18T14:06:34;10.90;;;3.45;;
75459;SDS011;64039;53.060;9.342;2023-02-18T14:09:24;9.90;;;3.75;;
75459;SDS011;64039;53.060;9.342;2023-02-18T14:14:53;13.32;;;4.63;;
75459;SDS011;64039;53.060;9.342;2023-02-18T14:22:31;9.50;;;3.97;;
75459;SDS011;64039;53.060;9.342;2023-02-18T14:27:55;17.50;;;3.55;;
75459;SDS011;64039;53.060;9.342;2023-02-18T14:30:25;9.25;;;3.30;;
75459;SDS011;64039;53.060;9.342;2023-02-18T14:32:58;12.75;;;2.70;;
75459;SDS011;64039;53.060;9.342;2023-02-18T14:35:39;10.93;;;2.70;;
75459;SDS011;64039;53.060;9.342;2023-02-18T14:49:01;16.27;;;2.60;;
75459;SDS011;64039;53.060;9.342;2023-02-18T14:51:40;12.73;;;2.85;;
75459;SDS011;64039;53.060;9.342;2023-02-18T14:54:12;14.02;;;2.47;;
75459;SDS011;64039;53.060;9.342;2023-02-18T14:56:58;13.52;;;2.80;;
75459;SDS011;64039;53.060;9.342;2023-02-18T14:59:30;14.82;;;2.47;;
75459;SDS011;64039;53.060;9.342;2023-02-18T15:02:02;8.02;;;2.10;;
75459;SDS011;64039;53.060;9.342;2023-02-18T15:04:27;10.07;;;2.35;;
75459;SDS011;64039;53.060;9.342;2023-02-18T15:07:03;8.68;;;2.33;;
75459;SDS011;64039;53.060;9.342;2023-02-18T15:09:34;10.65;;;2.28;;
75459;SDS011;64039;53.060;9.342;2023-02-18T15:14:39;8.95;;;1.80;;
75459;SDS011;64039;53.060;9.342;2023-02-18T15:17:10;10.70;;;1.75;;
75459;SDS011;64039;53.060;9.342;2023-02-18T15:19:47;11.00;;;2.17;;
75459;SDS011;64039;53.060;9.342;2023-02-18T15:22:17;11.80;;;2.10;;
75459;SDS011;64039;53.060;9.342;2023-02-18T15:24:45;12.77;;;1.92;;
75459;SDS011;64039;53.060;9.342;2023-02-18T15:29:43;10.30;;;1.65;;
75459;SDS011;64039;53.060;9.342;2023-02-18T15:32:21;12.95;;;2.05;;
75459;SDS011;64039;53.060;9.342;2023-02-18T15:34:52;10.35;;;2.15;;
75459;SDS011;64039;53.060;9.342;2023-02-18T15:37:25;12.90;;;2.10;;
75459;SDS011;64039;53.060;9.342;2023-02-18T15:39:51;10.90;;;2.38;;
75459;SDS011;64039;53.060;9.342;2023-02-18T15:42:33;12.20;;;2.17;;
75459;SDS011;64039;53.060;9.342;2023-02-18T15:45:02;9.65;;;2.00;;
75459;SDS011;64039;53.060;9.342;2023-02-18T15:47:31;11.27;;;2.13;;
75459;SDS011;64039;53.060;9.342;2023-02-18T15:49:58;11.05;;;1.98;;
75459;SDS011;64039;53.060;9.342;2023-02-18T15:52:28;6.45;;;1.98;;
75459;SDS011;64039;53.060;9.342;2023-02-18T15:54:59;7.47;;;1.80;;
75459;SDS011;64039;53.060;9.342;2023-02-18T15:57:27;9.55;;;2.17;;
75459;SDS011;64039;53.060;9.342;2023-02-18T16:00:13;5.05;;;1.55;;
75459;SDS011;64039;53.060;9.342;2023-02-18T16:02:53;7.10;;;1.60;;
75459;SDS011;64039;53.060;9.342;2023-02-18T16:05:23;8.15;;;1.92;;
75459;SDS011;64039;53.060;9.342;2023-02-18T16:07:52;7.32;;;1.50;;
75459;SDS011;64039;53.060;9.342;2023-02-18T16:10:23;8.03;;;1.40;;
75459;SDS011;64039;53.060;9.342;2023-02-18T16:13:00;5.65;;;1.65;;
75459;SDS011;64039;53.060;9.342;2023-02-18T16:15:30;5.88;;;1.60;;
75459;SDS011;64039;53.060;9.342;2023-02-18T16:18:03;8.27;;;1.50;;
75459;SDS011;64039;53.060;9.342;2023-02-18T16:20:35;7.75;;;1.50;;
75459;SDS011;64039;53.060;9.342;2023-02-18T16:23:03;4.85;;;1.38;;
75459;SDS011;64039;53.060;9.342;2023-02-18T16:25:38;6.72;;;1.35;;
75459;SDS011;64039;53.060;9.342;2023-02-18T16:28:15;7.35;;;1.58;;
75459;SDS011;64039;53.060;9.342;2023-02-18T16:30:47;9.75;;;1.70;;
75459;SDS011;64039;53.060;9.342;2023-02-18T16:33:13;8.70;;;1.80;;
75459;SDS011;64039;53.060;9.342;2023-02-18T16:35:39;5.53;;;1.30;;
75459;SDS011;64039;53.060;9.342;2023-02-18T16:38:05;7.22;;;1.58;;
75459;SDS011;64039;53.060;9.342;2023-02-18T16:40:37;9.25;;;1.70;;
75459;SDS011;64039;53.060;9.342;2023-02-18T16:43:12;7.82;;;1.90;;
75459;SDS011;64039;53.060;9.342;2023-02-18T16:45:52;4.90;;;1.55;;
75459;SDS011;64039;53.060;9.342;2023-02-18T16:48:28;5.85;;;1.58;;
75459;SDS011;64039;53.060;9.342;2023-02-18T16:50:57;9.80;;;1.85;;
75459;SDS011;64039;53.060;9.342;2023-02-18T16:53:25;6.40;;;1.55;;
75459;SDS011;64039;53.060;9.342;2023-02-18T16:55:50;6.38;;;1.60;;
75459;SDS011;64039;53.060;9.342;2023-02-18T16:58:16;7.90;;;2.28;;
75459;SDS011;64039;53.060;9.342;2023-02-18T17:00:42;9.63;;;2.00;;
75459;SDS011;64039;53.060;9.342;2023-02-18T17:03:09;7.63;;;1.50;;
75459;SDS011;64039;53.060;9.342;2023-02-18T17:05:36;5.07;;;1.17;;
75459;SDS011;64039;53.060;9.342;2023-02-18T17:10:52;9.77;;;1.70;;
75459;SDS011;64039;53.060;9.342;2023-02-18T17:13:21;5.10;;;1.20;;